Time;durP1;ratioP1;P1;durP2;ratioP2;P2;SDS_P1;SDS_P2;PMS_P1;PMS_P2;Temp;Humidity;BMP_temperature;BMP_pressure;BME280_temperature;BME280_humidity;BME280_pressure;Samples;Min_cycle;Max_cycle;Signal;HPM_P1;HPM_P2
2023/11/05 00:00:22;;;;;;;15.32;3.08;;;;;;;-146.27;85.93;83440.94;5028950;28;20021;-67
2023/11/05 00:02:47;;;;;;;10.30;2.25;;;;;;;-146.27;86.15;83453.00;5037995;28;20033;-69
2023/11/05 00:05:15;;;;;;;19.65;2.67;;;;;;;-146.27;85.65;83467.06;5036376;28;20021;-70
2023/11/05 00:07:41;;;;;;;10.10;2.17;;;;;;;-146.27;86.03;83465.06;5041162;28;20033;-70
2023/11/05 00:10:08;;;;;;;16.48;2.00;;;;;;;-146.27;86.21;83449.00;5024767;28;20017;-68
2023/11/05 00:12:33;;;;;;;15.35;2.45;;;;;;;-146.27;86.24;83487.16;5044752;28;20036;-68
2023/11/05 00:14:58;;;;;;;14.57;2.47;;;;;;;-146.27;85.87;83428.91;5039636;28;20032;-69
2023/11/05 00:17:24;;;;;;;11.98;1.80;;;;;;;-146.27;86.02;83457.03;5027211;28;20092;-69
2023/11/05 00:19:49;;;;;;;15.75;2.60;;;;;;;-146.27;85.94;83461.06;5025662;28;20677;-70
2023/11/05 00:22:16;;;;;;;15.93;2.40;;;;;;;-146.27;85.91;83418.84;5025215;28;20469;-69
2023/11/05 00:24:41;;;;;;;15.70;2.25;;;;;;;-146.27;85.75;83461.06;5032626;28;20068;-69
2023/11/05 00:27:06;;;;;;;13.65;2.92;;;;;;;-146.27;85.83;83491.19;5031458;28;20541;-70
2023/11/05 00:29:32;;;;;;;14.02;2.05;;;;;;;-146.27;85.69;83513.28;5031853;28;20489;-69
2023/11/05 00:31:57;;;;;;;15.25;4.15;;;;;;;-146.27;86.16;83436.94;5024279;28;20040;-69
2023/11/05 00:34:23;;;;;;;17.92;3.45;;;;;;;-146.27;86.01;83463.06;5038652;28;20393;-69
2023/11/05 00:36:48;;;;;;;15.85;3.10;;;;;;;-146.27;85.72;83436.94;5043066;28;20096;-68
2023/11/05 00:39:13;;;;;;;17.58;2.90;;;;;;;-146.27;85.81;83537.41;5035405;28;20542;-69
2023/11/05 00:41:39;;;;;;;16.90;2.00;;;;;;;-146.27;85.59;83444.97;5031492;28;20022;-69
2023/11/05 00:44:05;;;;;;;16.65;2.90;;;;;;;-146.27;85.66;83449.00;5028655;28;20029;-69
2023/11/05 00:46:31;;;;;;;11.35;2.58;;;;;;;-146.27;85.88;83539.41;5029028;28;20029;-69
2023/11/05 00:48:56;;;;;;;14.63;2.17;;;;;;;-146.27;86.18;83485.16;5025855;28;20099;-69
2023/11/05 00:51:22;;;;;;;13.25;2.08;;;;;;;-146.27;85.91;83451.00;5037181;28;20448;-69
2023/11/05 00:53:47;;;;;;;15.02;2.20;;;;;;;-146.27;86.04;83449.00;5018471;28;20586;-68
2023/11/05 00:56:12;;;;;;;24.17;4.82;;;;;;;-146.27;86.60;83444.97;5033364;28;20384;-69
2023/11/05 00:58:38;;;;;;;20.40;2.53;;;;;;;-146.27;86.15;83440.94;5041472;28;20040;-68
2023/11/05 01:01:04;;;;;;;13.25;2.22;;;;;;;-146.27;85.62;83406.78;5045312;28;20021;-69
2023/11/05 01:03:29;;;;;;;18.25;2.70;;;;;;;-146.27;85.85;83404.78;5030626;28;20400;-69
2023/11/05 01:05:54;;;;;;;16.63;2.15;;;;;;;-146.27;85.78;83424.88;5044165;28;20025;-68
2023/11/05 01:08:20;;;;;;;11.32;2.13;;;;;;;-146.27;86.27;83459.03;5045292;28;20031;-71
2023/11/05 01:10:45;;;;;;;13.30;2.42;;;;;;;-146.27;85.76;83412.81;5034190;28;20021;-71
2023/11/05 01:13:10;;;;;;;13.13;2.00;;;;;;;-146.27;85.49;83376.66;5029654;28;20021;-71
2023/11/05 01:15:36;;;;;;;18.77;2.33;;;;;;;-146.27;85.27;83376.66;5043761;28;20041;-72
2023/11/05 01:18:02;;;;;;;9.85;1.77;;;;;;;-146.27;85.25;83380.69;5044377;28;20037;-71
2023/11/05 01:20:28;;;;;;;12.80;1.73;;;;;;;-146.27;85.37;83378.66;5034977;28;20061;-72
2023/11/05 01:22:54;;;;;;;12.80;1.73;;;;;;;-146.27;85.21;83354.56;5031335;28;20444;-72
2023/11/05 01:25:19;;;;;;;8.65;2.20;;;;;;;-146.27;85.13;83328.44;5022730;28;20039;-72
2023/11/05 01:27:45;;;;;;;14.70;2.30;;;;;;;-146.27;85.14;83392.72;5027633;28;20017;-71
2023/11/05 01:30:11;;;;;;;10.60;1.92;;;;;;;-146.27;85.03;83296.28;5011660;28;20477;-71
2023/11/05 01:32:37;;;;;;;16.05;2.53;;;;;;;-146.27;84.96;83316.38;5031333;28;20040;-72
2023/11/05 01:35:04;;;;;;;14.75;2.40;;;;;;;-146.27;84.90;83392.72;5027828;28;20025;-72
2023/11/05 01:37:29;;;;;;;14.82;2.00;;;;;;;-146.27;84.99;83358.56;5027803;28;20044;-71
2023/11/05 01:39:56;;;;;;;12.07;1.70;;;;;;;-146.27;84.93;83366.59;5037692;28;20638;-72
2023/11/05 01:42:21;;;;;;;11.65;2.05;;;;;;;-146.27;84.99;83378.66;5031049;28;20025;-71
2023/11/05 01:44:47;;;;;;;13.05;1.55;;;;;;;-146.27;85.13;83378.66;5030940;28;20033;-71
2023/11/05 01:47:13;;;;;;;15.80;2.33;;;;;;;-146.27;85.13;83364.59;5015534;28;20021;-72
2023/11/05 01:49:39;;;;;;;14.43;2.20;;;;;;;-146.27;85.02;83384.69;5026397;28;20032;-72
2023/11/05 01:52:06;;;;;;;7.85;2.03;;;;;;;-146.27;85.00;83396.75;5029042;28;20036;-72
2023/11/05 01:54:31;;;;;;;15.35;2.53;;;;;;;-146.27;84.91;83362.59;5016524;28;20079;-71
2023/11/05 01:56:57;;;;;;;13.18;2.85;;;;;;;-146.27;85.07;83366.59;5026195;28;20112;-73
2023/11/05 01:59:22;;;;;;;10.20;1.83;;;;;;;-146.27;85.00;83364.59;5012121;28;20102;-71
2023/11/05 02:01:49;;;;;;;18.52;2.58;;;;;;;-146.27;84.97;83342.50;5021335;28;20036;-72
2023/11/05 02:04:15;;;;;;;7.88;1.95;;;;;;;-146.27;84.99;83356.56;5040560;28;20041;-72
2023/11/05 02:06:40;;;;;;;19.30;2.42;;;;;;;-146.27;85.07;83338.47;5045410;28;20114;-72
2023/11/05 02:09:06;;;;;;;13.57;2.33;;;;;;;-146.27;85.13;83356.56;5038210;28;20666;-71
2023/11/05 02:11:31;;;;;;;15.45;2.80;;;;;;;-146.27;85.12;83360.59;5026325;28;20537;-72
2023/11/05 02:13:57;;;;;;;11.52;1.95;;;;;;;-146.27;85.43;83338.47;5029802;28;20405;-71
2023/11/05 02:16:31;;;;;;;9.23;1.77;;;;;;;-146.27;85.38;83372.63;5028478;28;20029;-71
2023/11/05 02:18:59;;;;;;;8.10;1.98;;;;;;;-146.27;85.29;83334.47;5014763;28;20034;-72
2023/11/05 02:21:26;;;;;;;8.65;1.80;;;;;;;-146.27;85.28;83332.44;5027984;28;20017;-68
2023/11/05 02:23:54;;;;;;;15.07;2.05;;;;;;;-146.27;85.26;83344.50;5013666;28;20179;-69
2023/11/05 02:26:20;;;;;;;19.55;2.45;;;;;;;-146.27;85.40;83376.66;5018236;28;20029;-69
2023/11/05 02:28:45;;;;;;;9.88;2.28;;;;;;;-146.27;85.53;83356.56;5032475;28;20029;-68
2023/11/05 02:31:11;;;;;;;10.20;1.88;;;;;;;-146.27;85.51;83360.59;5031460;28;20125;-69
2023/11/05 02:33:43;;;;;;;15.75;1.80;;;;;;;-146.27;85.97;83372.63;5025736;28;20045;-69
2023/11/05 02:36:10;;;;;;;7.85;1.83;;;;;;;-146.27;86.54;83360.59;5029461;28;20037;-70
2023/11/05 02:38:36;;;;;;;7.90;1.50;;;;;;;-146.27;86.39;83368.63;5031539;28;20057;-68
2023/11/05 02:41:02;;;;;;;14.45;2.75;;;;;;;-146.27;86.42;83386.69;5033498;28;20039;-70
2023/11/05 02:43:27;;;;;;;10.70;2.00;;;;;;;-146.27;86.24;83346.53;5036827;28;20318;-69
2023/11/05 02:45:53;;;;;;;16.33;2.08;;;;;;;-146.27;86.43;83354.56;5030291;28;20021;-67
2023/11/05 02:48:18;;;;;;;10.23;2.03;;;;;;;-146.27;87.77;83384.69;5018759;28;20060;-68
2023/11/05 02:50:44;;;;;;;5.82;1.50;;;;;;;-146.27;87.19;83392.72;5028539;28;20388;-69
2023/11/05 02:53:11;;;;;;;8.23;1.73;;;;;;;-146.27;87.16;83390.72;5022828;28;20033;-68
2023/11/05 02:55:36;;;;;;;9.68;2.00;;;;;;;-146.27;87.25;83368.63;5034290;28;20032;-69
2023/11/05 02:58:02;;;;;;;9.80;1.85;;;;;;;-146.27;87.68;83380.69;5028643;28;20025;-67
2023/11/05 03:00:28;;;;;;;13.60;2.03;;;;;;;-146.27;87.51;83384.69;5034669;28;20226;-69
2023/11/05 03:02:54;;;;;;;11.60;2.15;;;;;;;-146.27;88.32;83344.50;5029089;28;20029;-69
2023/11/05 03:05:19;;;;;;;3.53;1.58;;;;;;;-146.27;88.21;83364.59;5032685;28;20522;-68
2023/11/05 03:07:44;;;;;;;8.65;1.70;;;;;;;-146.27;87.83;83346.53;5026921;28;20029;-68
2023/11/05 03:10:10;;;;;;;14.25;2.08;;;;;;;-146.27;88.24;83410.81;5036477;28;20035;-70
2023/11/05 03:12:35;;;;;;;9.07;2.17;;;;;;;-146.27;88.00;83360.59;5034537;28;20032;-68
2023/11/05 03:15:01;;;;;;;4.93;1.60;;;;;;;-146.27;87.86;83362.59;5031263;28;20028;-69
2023/11/05 03:17:26;;;;;;;5.22;1.60;;;;;;;-146.27;87.73;83360.59;5026578;28;20108;-69
2023/11/05 03:19:51;;;;;;;7.22;2.40;;;;;;;-146.27;88.16;83388.72;5031287;28;20036;-70
2023/11/05 03:22:17;;;;;;;12.43;2.60;;;;;;;-146.27;88.35;83360.59;5027867;28;20044;-69
2023/11/05 03:24:45;;;;;;;6.88;2.42;;;;;;;-146.27;88.07;83360.59;5012215;28;20029;-68
2023/11/05 03:27:10;;;;;;;7.15;2.55;;;;;;;-146.27;88.33;83376.66;5024711;28;20491;-69
2023/11/05 03:29:35;;;;;;;9.57;2.67;;;;;;;-146.27;88.37;83392.72;5030544;28;20112;-70
2023/11/05 03:32:02;;;;;;;11.68;2.72;;;;;;;-146.27;87.89;83334.47;5029599;28;20068;-69
2023/11/05 03:34:27;;;;;;;13.43;2.30;;;;;;;-146.27;87.78;83348.53;5029681;28;20025;-69
2023/11/05 03:36:52;;;;;;;5.97;2.70;;;;;;;-146.27;87.89;83324.41;5029053;28;20071;-69
2023/11/05 03:39:18;;;;;;;7.47;2.88;;;;;;;-146.27;87.72;83358.56;5031259;28;20047;-67
2023/11/05 03:41:44;;;;;;;11.15;2.53;;;;;;;-146.27;87.84;83306.34;5035551;28;20025;-69
2023/11/05 03:44:10;;;;;;;10.18;3.28;;;;;;;-146.27;87.75;83336.47;5036638;28;20494;-69
2023/11/05 03:46:39;;;;;;;8.80;3.30;;;;;;;-146.27;87.83;83344.50;5022057;28;20039;-69
2023/11/05 03:49:04;;;;;;;10.57;3.15;;;;;;;-146.27;88.08;83332.44;5043735;28;20675;-69
2023/11/05 03:51:30;;;;;;;11.43;3.35;;;;;;;-146.27;87.97;83356.56;5040042;28;20112;-70
2023/11/05 03:53:56;;;;;;;12.27;3.75;;;;;;;-146.27;88.04;83344.50;5040567;28;20477;-69
2023/11/05 03:56:21;;;;;;;10.52;3.28;;;;;;;-146.27;88.03;83304.31;5049436;28;20086;-69
2023/11/05 03:58:47;;;;;;;7.55;4.03;;;;;;;-146.27;87.85;83268.16;5021982;28;20053;-69
2023/11/05 04:01:17;;;;;;;12.95;3.20;;;;;;;-146.27;88.05;83394.75;5022563;28;20553;-69
2023/11/05 04:03:42;;;;;;;11.90;3.15;;;;;;;-146.27;88.25;83346.53;5030227;28;20087;-68
2023/11/05 04:06:08;;;;;;;10.45;3.17;;;;;;;-146.27;88.19;83342.50;5044515;28;20021;-68
2023/11/05 04:08:33;;;;;;;7.75;3.22;;;;;;;-146.27;88.24;83362.59;5022105;28;20104;-67
2023/11/05 04:10:59;;;;;;;12.20;3.17;;;;;;;-146.27;88.16;83376.66;5029579;28;20053;-70
2023/11/05 04:13:24;;;;;;;13.32;3.28;;;;;;;-146.27;88.48;83368.63;5034513;28;20028;-69
2023/11/05 04:15:50;;;;;;;10.10;2.90;;;;;;;-146.27;88.74;83392.72;5042077;28;20026;-69
2023/11/05 04:18:16;;;;;;;8.20;3.13;;;;;;;-146.27;89.07;83400.78;5014457;28;20505;-69
2023/11/05 04:20:41;;;;;;;11.98;3.15;;;;;;;-146.27;89.33;83428.91;5024462;28;20026;-69
2023/11/05 04:23:06;;;;;;;8.75;3.47;;;;;;;-146.27;88.74;83352.53;5021440;28;20033;-70
2023/11/05 04:25:32;;;;;;;11.25;3.90;;;;;;;-146.27;88.95;83360.59;5040845;28;20025;-68
2023/11/05 04:27:57;;;;;;;6.90;2.92;;;;;;;-146.27;89.20;83404.78;5039027;28;20032;-68
2023/11/05 04:30:23;;;;;;;12.70;3.53;;;;;;;-146.27;88.75;83332.44;5047200;28;20029;-68
2023/11/05 04:32:48;;;;;;;8.82;3.05;;;;;;;-146.27;88.90;83356.56;5026848;28;20521;-69
2023/11/05 04:35:14;;;;;;;9.60;3.33;;;;;;;-146.27;88.88;83348.53;5036594;28;20111;-69
2023/11/05 04:37:39;;;;;;;11.95;3.25;;;;;;;-146.27;89.09;83348.53;5032865;28;20100;-67
2023/11/05 04:40:06;;;;;;;11.45;3.78;;;;;;;-146.27;88.66;83348.53;5029341;28;20033;-67
2023/11/05 04:42:31;;;;;;;7.45;2.80;;;;;;;-146.27;88.69;83314.38;5029886;28;20029;-71
2023/11/05 04:45:00;;;;;;;17.70;3.47;;;;;;;-146.27;88.68;83348.53;5035407;28;20112;-70
2023/11/05 04:47:26;;;;;;;8.13;3.70;;;;;;;-146.27;88.64;83372.63;5040774;28;20094;-71
2023/11/05 04:49:51;;;;;;;15.05;3.15;;;;;;;-146.27;88.58;83332.44;5042098;28;20481;-71
2023/11/05 04:52:16;;;;;;;9.00;2.70;;;;;;;-146.27;88.43;83308.34;5036022;28;20394;-71
2023/11/05 04:54:42;;;;;;;10.65;2.97;;;;;;;-146.27;88.43;83280.22;5031845;28;20086;-72
2023/11/05 04:57:08;;;;;;;5.93;2.40;;;;;;;-146.27;88.26;83326.44;5041365;28;20091;-71
2023/11/05 04:59:34;;;;;;;10.07;2.47;;;;;;;-146.27;88.25;83296.28;5027696;28;20029;-71
2023/11/05 05:02:00;;;;;;;8.23;2.70;;;;;;;-146.27;88.53;83304.31;5035943;28;20026;-72
2023/11/05 05:04:26;;;;;;;10.57;2.35;;;;;;;-146.27;88.73;83340.50;5048852;28;20385;-71
2023/11/05 05:06:53;;;;;;;10.90;2.78;;;;;;;-146.27;88.51;83312.34;5037238;28;20174;-71
2023/11/05 05:09:19;;;;;;;14.60;4.43;;;;;;;-146.27;89.02;83346.53;5039218;28;20588;-71
2023/11/05 05:11:44;;;;;;;10.65;2.60;;;;;;;-146.27;89.34;83342.50;5033430;28;20065;-70
2023/11/05 05:14:10;;;;;;;18.17;3.42;;;;;;;-146.27;89.00;83324.41;5046912;28;20057;-71
2023/11/05 05:16:35;;;;;;;14.85;2.90;;;;;;;-146.27;88.56;83352.53;5045740;28;20041;-70
2023/11/05 05:19:01;;;;;;;15.13;2.92;;;;;;;-146.27;88.59;83332.44;5037205;28;20029;-71
2023/11/05 05:21:26;;;;;;;10.02;2.92;;;;;;;-146.27;88.46;83304.31;5031549;28;20037;-72
2023/11/05 05:23:52;;;;;;;9.82;2.97;;;;;;;-146.27;88.50;83298.28;5029611;28;20022;-71
2023/11/05 05:26:17;;;;;;;11.20;2.55;;;;;;;-146.27;88.59;83308.34;5027294;28;20113;-71
2023/11/05 05:28:43;;;;;;;10.23;2.92;;;;;;;-146.27;88.42;83284.22;5027693;28;20170;-71
2023/11/05 05:31:08;;;;;;;17.02;2.85;;;;;;;-146.27;88.30;83338.47;5027861;28;20029;-71
2023/11/05 05:33:34;;;;;;;11.13;3.22;;;;;;;-146.27;88.16;83312.34;5033478;28;20033;-71
2023/11/05 05:35:59;;;;;;;5.20;2.28;;;;;;;-146.27;88.29;83300.31;5020726;28;20053;-71
2023/11/05 05:38:25;;;;;;;11.50;3.00;;;;;;;-146.27;88.28;83320.41;5023878;28;20025;-71
2023/11/05 05:40:50;;;;;;;8.95;2.58;;;;;;;-146.27;88.48;83304.31;5038984;28;20021;-71
2023/11/05 05:43:16;;;;;;;13.05;2.72;;;;;;;-146.27;88.28;83300.31;5033083;28;20033;-71
2023/11/05 05:45:41;;;;;;;9.18;3.00;;;;;;;-146.27;88.35;83306.34;5036835;28;20064;-71
2023/11/05 05:48:06;;;;;;;9.70;2.60;;;;;;;-146.27;88.47;83320.41;5037315;28;20548;-71
2023/11/05 05:50:32;;;;;;;8.63;2.80;;;;;;;-146.27;88.50;83332.44;5033025;28;20420;-71
2023/11/05 05:52:57;;;;;;;11.40;3.22;;;;;;;-146.27;88.63;83306.34;5034741;28;20029;-71
2023/11/05 05:55:24;;;;;;;10.35;2.65;;;;;;;-146.27;88.34;83262.13;5036406;28;20026;-71
2023/11/05 05:57:50;;;;;;;8.07;2.72;;;;;;;-146.27;88.45;83274.19;5028299;28;20547;-72
2023/11/05 06:00:15;;;;;;;7.13;2.85;;;;;;;-146.27;88.23;83280.22;5036246;28;20021;-70
2023/11/05 06:02:41;;;;;;;9.60;3.70;;;;;;;-146.27;88.21;83324.41;5035231;28;20036;-71
2023/11/05 06:05:08;;;;;;;9.98;3.55;;;;;;;-146.27;88.29;83240.03;5027430;28;20029;-71
2023/11/05 06:07:36;;;;;;;11.63;3.17;;;;;;;-146.27;88.21;83316.38;5028528;28;20111;-71
2023/11/05 06:10:02;;;;;;;10.93;3.25;;;;;;;-146.27;88.64;83298.28;5037165;28;20358;-71
2023/11/05 06:12:28;;;;;;;10.95;2.60;;;;;;;-146.27;88.30;83248.06;5042840;28;20040;-69
2023/11/05 06:14:53;;;;;;;6.15;2.38;;;;;;;-146.27;88.16;83302.31;5036099;28;20025;-71
2023/11/05 06:17:19;;;;;;;18.15;2.95;;;;;;;-146.27;88.24;83324.41;5030669;28;20397;-71
2023/11/05 06:19:44;;;;;;;13.80;4.05;;;;;;;-146.27;88.24;83308.34;5021766;28;20032;-71
2023/11/05 06:22:10;;;;;;;9.07;2.58;;;;;;;-146.27;88.21;83324.41;5027683;28;20472;-71
2023/11/05 06:24:38;;;;;;;7.55;2.47;;;;;;;-146.27;88.10;83312.34;5026718;28;20022;-70
2023/11/05 06:27:04;;;;;;;8.77;2.72;;;;;;;-146.27;88.21;83296.28;5025625;28;20029;-71
2023/11/05 06:29:29;;;;;;;12.70;2.30;;;;;;;-146.27;88.23;83306.34;5032011;28;20034;-71
2023/11/05 06:31:54;;;;;;;8.65;2.22;;;;;;;-146.27;88.20;83348.53;5019304;28;20030;-71
2023/11/05 06:34:20;;;;;;;14.13;2.50;;;;;;;-146.27;88.26;83298.28;5030830;28;20131;-71
2023/11/05 06:36:59;;;;;;;9.63;2.70;;;;;;;-146.27;88.27;83312.34;5012577;28;20116;-71
2023/11/05 06:39:27;;;;;;;13.20;2.35;;;;;;;-146.27;88.38;83280.22;5021447;28;20086;-71
2023/11/05 06:41:52;;;;;;;15.38;2.70;;;;;;;-146.27;88.37;83292.28;5026320;28;20167;-70
2023/11/05 06:44:18;;;;;;;8.55;2.15;;;;;;;-146.27;88.38;83288.25;5048967;28;20028;-71
2023/11/05 06:46:44;;;;;;;12.60;2.70;;;;;;;-146.27;88.33;83300.31;5034998;28;20057;-71
2023/11/05 06:49:09;;;;;;;12.82;2.92;;;;;;;-146.27;88.57;83308.34;5033893;28;20025;-71
2023/11/05 06:51:35;;;;;;;17.88;3.65;;;;;;;-146.27;88.56;83300.31;5037116;28;20025;-71
2023/11/05 06:54:01;;;;;;;14.70;3.10;;;;;;;-146.27;88.48;83356.56;5024251;28;20021;-71
2023/11/05 06:56:26;;;;;;;8.20;2.63;;;;;;;-146.27;88.72;83308.34;5017245;28;20034;-71
2023/11/05 06:58:52;;;;;;;16.63;3.65;;;;;;;-146.27;88.56;83344.50;5024121;28;20035;-71
2023/11/05 07:01:18;;;;;;;12.63;2.80;;;;;;;-146.27;88.43;83300.31;5026495;28;20429;-69
2023/11/05 07:03:44;;;;;;;11.50;2.63;;;;;;;-146.27;88.49;83302.31;5027593;28;20029;-69
2023/11/05 07:06:13;;;;;;;15.30;3.83;;;;;;;-146.27;88.50;83312.34;5021928;28;20060;-69
2023/11/05 07:08:38;;;;;;;15.95;2.63;;;;;;;-146.27;88.45;83268.16;5010565;28;20096;-69
2023/11/05 07:11:05;;;;;;;15.15;3.40;;;;;;;-146.27;88.37;83276.19;5027670;28;20029;-66
2023/11/05 07:13:41;;;;;;;11.60;3.08;;;;;;;-146.27;88.30;83240.03;5024823;28;20559;-69
2023/11/05 07:16:08;;;;;;;10.75;2.85;;;;;;;-146.27;88.74;83264.13;5033340;28;20041;-69
2023/11/05 07:18:33;;;;;;;17.30;2.92;;;;;;;-146.27;88.54;83288.25;5031051;28;20371;-69
2023/11/05 07:21:00;;;;;;;12.70;3.13;;;;;;;-146.27;89.30;83316.38;5031795;28;20079;-69
2023/11/05 07:23:25;;;;;;;15.85;3.25;;;;;;;-146.27;89.03;83308.34;5030010;28;20034;-69
2023/11/05 07:25:51;;;;;;;16.50;3.08;;;;;;;-146.27;89.05;83308.34;5021175;28;20022;-69
2023/11/05 07:28:16;;;;;;;13.88;2.92;;;;;;;-146.27;88.95;83306.34;5023759;28;20465;-69
2023/11/05 07:30:42;;;;;;;16.55;2.95;;;;;;;-146.27;88.92;83270.16;5028642;28;20120;-68
2023/11/05 07:33:09;;;;;;;11.07;2.50;;;;;;;-146.27;88.94;83260.13;5023976;28;20481;-69
2023/11/05 07:35:35;;;;;;;14.57;4.07;;;;;;;-146.27;88.94;83292.28;5030270;28;20029;-68
2023/11/05 07:38:00;;;;;;;16.45;3.05;;;;;;;-146.27;88.91;83272.19;5025952;28;20632;-68
2023/11/05 07:40:26;;;;;;;16.05;3.38;;;;;;;-146.27;88.75;83282.22;5020429;28;20032;-68
2023/11/05 07:42:51;;;;;;;12.02;2.97;;;;;;;-146.27;88.72;83292.28;5011043;28;20038;-69
2023/11/05 07:45:17;;;;;;;14.88;3.30;;;;;;;-146.27;88.58;83240.03;5037692;28;20025;-68
2023/11/05 07:47:42;;;;;;;12.30;2.95;;;;;;;-146.27;89.24;83270.16;5026743;28;20026;-69
2023/11/05 07:50:11;;;;;;;16.80;2.92;;;;;;;-146.27;89.05;83262.13;5026441;28;20516;-69
2023/11/05 07:52:38;;;;;;;14.30;3.22;;;;;;;-146.27;89.45;83294.28;5015940;28;20052;-68
2023/11/05 07:55:08;;;;;;;20.95;3.55;;;;;;;-146.27;89.12;83270.16;5021337;28;20486;-69
2023/11/05 07:57:33;;;;;;;10.50;2.80;;;;;;;-146.27;88.99;83280.22;5046473;28;20473;-69
2023/11/05 08:00:00;;;;;;;16.25;3.47;;;;;;;-146.27;89.00;83223.94;5048262;28;20035;-69
2023/11/05 08:02:25;;;;;;;13.57;3.10;;;;;;;-146.27;88.85;83232.00;5020273;28;20036;-68
2023/11/05 08:04:50;;;;;;;15.23;3.10;;;;;;;-146.27;89.25;83223.94;5039767;28;20388;-76
2023/11/05 08:07:16;;;;;;;19.08;3.60;;;;;;;-146.27;88.79;83211.91;5026406;28;20061;-70
2023/11/05 08:09:41;;;;;;;20.65;3.25;;;;;;;-146.27;88.93;83240.03;5025175;28;20068;-69
2023/11/05 08:12:06;;;;;;;22.45;4.95;;;;;;;-146.27;88.67;83211.91;5030429;28;20436;-71
2023/11/05 08:14:32;;;;;;;25.40;3.65;;;;;;;-146.27;88.66;83229.97;5027117;28;20485;-70
2023/11/05 08:16:57;;;;;;;11.48;3.22;;;;;;;-146.27;88.59;83199.84;5023952;28;20038;-71
2023/11/05 08:19:22;;;;;;;8.98;2.90;;;;;;;-146.27;88.51;83236.00;5027069;28;20389;-70
2023/11/05 08:21:48;;;;;;;13.32;3.53;;;;;;;-146.27;88.37;83232.00;5025956;28;20653;-71
2023/11/05 08:24:13;;;;;;;6.40;2.97;;;;;;;-146.27;88.17;83207.88;5026538;28;20025;-70
2023/11/05 08:26:39;;;;;;;11.25;3.50;;;;;;;-146.27;87.98;83161.66;5031425;28;21668;-71
2023/11/05 08:29:04;;;;;;;12.98;2.70;;;;;;;-146.27;87.17;83199.84;5040536;28;20033;-70
2023/11/05 08:31:30;;;;;;;9.57;2.65;;;;;;;-146.27;86.36;83137.56;5032951;28;20212;-70
2023/11/05 08:33:55;;;;;;;9.05;2.53;;;;;;;-146.27;86.79;83187.78;5036625;28;20025;-68
2023/11/05 08:36:21;;;;;;;11.95;3.22;;;;;;;-146.27;87.13;83207.88;5034619;28;20351;-70
2023/11/05 08:38:46;;;;;;;11.80;2.60;;;;;;;-146.27;86.60;83161.66;5036972;28;20028;-77
2023/11/05 08:41:14;;;;;;;13.43;3.55;;;;;;;-146.27;86.56;83191.81;5050881;28;20063;-70
2023/11/05 08:43:39;;;;;;;8.38;2.50;;;;;;;-146.27;85.75;83107.41;5036059;28;20079;-70
2023/11/05 08:46:05;;;;;;;9.10;3.42;;;;;;;-146.27;86.24;83183.78;5034411;28;20037;-70
2023/11/05 08:48:32;;;;;;;8.10;2.63;;;;;;;-146.27;85.97;83207.88;5031120;28;20045;-71
2023/11/05 08:50:57;;;;;;;13.75;2.85;;;;;;;-146.27;86.11;83163.69;5023670;28;20036;-70
2023/11/05 08:53:24;;;;;;;15.65;3.35;;;;;;;-146.27;85.64;83155.63;5027571;28;20456;-71
2023/11/05 08:55:49;;;;;;;8.98;2.67;;;;;;;-146.27;86.58;83227.97;5030428;28;20490;-71
2023/11/05 08:58:16;;;;;;;10.23;2.92;;;;;;;-146.27;86.46;83211.91;5030099;28;20067;-71
2023/11/05 09:00:43;;;;;;;10.18;3.30;;;;;;;-146.27;86.21;83145.59;5023262;28;20063;-72
2023/11/05 09:03:12;;;;;;;10.57;3.00;;;;;;;-146.27;85.75;83139.56;5027628;28;20386;-71
2023/11/05 09:05:39;;;;;;;12.18;3.03;;;;;;;-146.27;85.42;83145.59;5030727;28;20029;-71
2023/11/05 09:08:05;;;;;;;13.25;3.55;;;;;;;-146.27;86.52;83276.19;5028561;28;20053;-71
2023/11/05 09:10:30;;;;;;;10.88;3.53;;;;;;;-146.27;86.70;83199.84;5024464;28;20061;-72
2023/11/05 09:12:59;;;;;;;8.15;3.45;;;;;;;-146.27;86.96;83165.69;5026404;28;20028;-70
2023/11/05 09:15:25;;;;;;;13.02;3.20;;;;;;;-146.27;86.24;83147.59;5032268;28;20485;-71
2023/11/05 09:17:51;;;;;;;8.38;3.22;;;;;;;-146.27;86.77;83270.16;5034042;28;20463;-71
2023/11/05 09:20:16;;;;;;;10.35;3.42;;;;;;;-146.27;86.93;83169.69;5045293;28;20025;-71
2023/11/05 09:22:42;;;;;;;11.02;4.22;;;;;;;-146.27;87.62;83201.84;5035207;28;20031;-71
2023/11/05 09:25:08;;;;;;;12.55;3.92;;;;;;;-146.27;86.74;83151.63;5032081;28;20044;-71
2023/11/05 09:27:34;;;;;;;9.80;3.42;;;;;;;-146.27;87.00;83177.75;5030342;28;20044;-70
2023/11/05 09:30:00;;;;;;;11.25;3.75;;;;;;;-146.27;88.26;83183.78;5029664;28;20064;-69
2023/11/05 09:32:25;;;;;;;7.40;3.50;;;;;;;-146.27;87.75;83171.72;5040046;28;20103;-71
2023/11/05 09:34:52;;;;;;;9.15;3.17;;;;;;;-146.27;88.08;83175.72;5034612;28;20033;-71
2023/11/05 09:37:18;;;;;;;10.30;3.17;;;;;;;-146.27;88.48;83183.78;5038185;28;20617;-70
2023/11/05 09:39:44;;;;;;;9.05;3.22;;;;;;;-146.27;89.81;83268.16;5029873;28;20124;-70
2023/11/05 09:42:15;;;;;;;16.10;3.20;;;;;;;-146.27;89.46;83232.00;5033716;28;20029;-70
2023/11/05 09:44:40;;;;;;;8.15;2.95;;;;;;;-146.27;89.78;83229.97;5034241;28;20029;-70
2023/11/05 09:47:09;;;;;;;8.55;2.88;;;;;;;-146.27;90.69;83264.13;5026236;28;20036;-70
2023/11/05 09:49:37;;;;;;;14.30;2.75;;;;;;;-146.27;90.78;83219.94;5022164;28;20018;-70
2023/11/05 09:52:10;;;;;;;11.27;1.60;;;;;;;-146.27;91.46;83250.06;5027622;28;20468;-70
2023/11/05 09:54:42;;;;;;;1.50;0.80;;;;;;;-146.27;91.88;83268.16;5028265;28;20030;-72
2023/11/05 09:57:07;;;;;;;6.28;1.40;;;;;;;-146.27;91.96;83288.25;5021444;28;20026;-69
2023/11/05 09:59:33;;;;;;;9.18;1.40;;;;;;;-146.27;91.66;83304.31;5034562;28;20021;-70
2023/11/05 10:01:59;;;;;;;5.43;1.40;;;;;;;-146.27;91.18;83264.13;5041715;28;20036;-70
2023/11/05 10:04:25;;;;;;;7.82;1.67;;;;;;;-146.27;90.75;83215.91;5031263;28;20500;-70
2023/11/05 10:06:51;;;;;;;5.32;1.70;;;;;;;-146.27;91.43;83280.22;5029056;28;20033;-72
2023/11/05 10:09:18;;;;;;;11.82;2.13;;;;;;;-146.27;90.65;83244.03;5029962;28;20038;-70
2023/11/05 10:11:43;;;;;;;10.57;2.53;;;;;;;-146.27;90.28;83219.94;5030497;28;20036;-69
2023/11/05 10:14:11;;;;;;;13.00;2.33;;;;;;;-146.27;90.93;83199.84;5034183;28;20043;-70
2023/11/05 10:16:38;;;;;;;10.05;2.00;;;;;;;-146.27;90.43;83229.97;5038720;28;20056;-71
2023/11/05 10:19:04;;;;;;;12.00;2.30;;;;;;;-146.27;90.20;83215.91;5029665;28;20033;-70
2023/11/05 10:21:36;;;;;;;4.15;1.77;;;;;;;-146.27;89.83;83167.69;5041799;28;20555;-70
2023/11/05 10:24:03;;;;;;;5.50;1.85;;;;;;;-146.27;87.47;83151.63;5042010;28;20535;-71
2023/11/05 10:26:31;;;;;;;10.82;2.40;;;;;;;-146.27;85.87;83139.56;5033187;28;20033;-71
2023/11/05 10:28:57;;;;;;;8.95;1.65;;;;;;;-146.27;85.32;83143.59;5030803;28;20043;-70
2023/11/05 10:31:24;;;;;;;6.68;2.20;;;;;;;-146.27;84.32;83149.63;5032778;28;20029;-68
2023/11/05 10:33:54;;;;;;;3.53;1.30;;;;;;;-146.27;83.06;83119.47;5030826;28;20029;-70
2023/11/05 10:36:21;;;;;;;3.97;1.30;;;;;;;-146.27;82.89;83029.06;5028116;28;20504;-69
2023/11/05 10:38:51;;;;;;;6.40;1.80;;;;;;;-146.27;81.93;82982.84;5032975;28;20087;-69
2023/11/05 10:41:20;;;;;;;2.55;1.25;;;;;;;-146.27;80.59;82858.28;5032164;28;20022;-67
2023/11/05 10:43:50;;;;;;;7.85;1.70;;;;;;;-146.27;78.72;82846.25;5028794;28;20104;-67
2023/11/05 10:46:17;;;;;;;4.63;1.58;;;;;;;-146.27;78.01;82878.38;5019509;28;20021;-69
2023/11/05 10:48:45;;;;;;;5.95;1.60;;;;;;;-146.27;78.90;82930.63;5022016;28;20035;-71
2023/11/05 10:51:11;;;;;;;5.78;1.58;;;;;;;-146.27;80.12;82942.66;5029573;28;20404;-70
2023/11/05 10:53:39;;;;;;;4.45;1.50;;;;;;;-146.27;80.25;82964.78;5024902;28;20022;-69
2023/11/05 10:56:36;;;;;;;9.43;2.55;;;;;;;-146.27;80.54;82966.78;5043546;28;20026;-68
2023/11/05 10:59:02;;;;;;;7.00;1.85;;;;;;;-146.27;80.59;82950.72;5021927;28;20041;-68
2023/11/05 11:01:30;;;;;;;8.90;2.15;;;;;;;-146.27;81.38;83027.06;5017327;28;20574;-66
2023/11/05 11:04:13;;;;;;;4.47;1.92;;;;;;;-146.27;81.94;83065.22;5033893;28;20037;-68
2023/11/05 11:06:40;;;;;;;8.30;2.20;;;;;;;-146.27;81.92;83039.09;5017792;28;20611;-68